sensor_id;sensor_type;location;lat;lon;timestamp;P1;durP1;ratioP1;P2;durP2;ratioP2
40695;SDS011;40425;51.102;17.208;2023-02-11T00:02:00;59.27;;;26.77;;
40695;SDS011;40425;51.102;17.208;2023-02-11T00:07:00;56.07;;;25.03;;
40695;SDS011;40425;51.102;17.208;2023-02-11T00:12:01;52.57;;;27.27;;
40695;SDS011;40425;51.102;17.208;2023-02-11T00:17:02;44.00;;;22.47;;
40695;SDS011;40425;51.102;17.208;2023-02-11T00:22:03;43.67;;;22.40;;
40695;SDS011;40425;51.102;17.208;2023-02-11T00:27:04;50.50;;;24.93;;
40695;SDS011;40425;51.102;17.208;2023-02-11T00:32:05;45.47;;;24.17;;
40695;SDS011;40425;51.102;17.208;2023-02-11T00:37:07;45.13;;;22.57;;
40695;SDS011;40425;51.102;17.208;2023-02-11T00:42:10;52.50;;;24.30;;
40695;SDS011;40425;51.102;17.208;2023-02-11T00:47:14;48.13;;;23.10;;
40695;SDS011;40425;51.102;17.208;2023-02-11T00:52:14;43.40;;;21.30;;
40695;SDS011;40425;51.102;17.208;2023-02-11T00:57:15;43.13;;;21.83;;
40695;SDS011;40425;51.102;17.208;2023-02-11T01:02:16;42.27;;;21.73;;
40695;SDS011;40425;51.102;17.208;2023-02-11T01:07:17;45.93;;;22.57;;
40695;SDS011;40425;51.102;17.208;2023-02-11T01:12:18;49.93;;;23.77;;
40695;SDS011;40425;51.102;17.208;2023-02-11T01:17:19;48.73;;;23.00;;
40695;SDS011;40425;51.102;17.208;2023-02-11T01:22:19;47.23;;;25.47;;
40695;SDS011;40425;51.102;17.208;2023-02-11T01:27:20;48.23;;;24.13;;
40695;SDS011;40425;51.102;17.208;2023-02-11T01:32:21;49.53;;;24.53;;
40695;SDS011;40425;51.102;17.208;2023-02-11T01:37:22;44.33;;;24.57;;
40695;SDS011;40425;51.102;17.208;2023-02-11T01:42:24;49.63;;;24.60;;
40695;SDS011;40425;51.102;17.208;2023-02-11T01:47:25;50.20;;;24.80;;
40695;SDS011;40425;51.102;17.208;2023-02-11T01:52:36;51.77;;;28.00;;
40695;SDS011;40425;51.102;17.208;2023-02-11T01:57:41;59.60;;;30.77;;
40695;SDS011;40425;51.102;17.208;2023-02-11T02:02:55;49.83;;;26.47;;
40695;SDS011;40425;51.102;17.208;2023-02-11T02:08:09;51.17;;;26.23;;
40695;SDS011;40425;51.102;17.208;2023-02-11T02:13:11;55.27;;;26.93;;
40695;SDS011;40425;51.102;17.208;2023-02-11T02:29:36;51.07;;;25.13;;
40695;SDS011;40425;51.102;17.208;2023-02-11T02:35:03;49.93;;;25.67;;
40695;SDS011;40425;51.102;17.208;2023-02-11T02:40:25;53.80;;;26.67;;
40695;SDS011;40425;51.102;17.208;2023-02-11T02:45:30;50.43;;;25.37;;
40695;SDS011;40425;51.102;17.208;2023-02-11T02:50:33;46.87;;;26.07;;
40695;SDS011;40425;51.102;17.208;2023-02-11T02:56:12;46.03;;;22.80;;
40695;SDS011;40425;51.102;17.208;2023-02-11T03:01:22;47.93;;;23.70;;
40695;SDS011;40425;51.102;17.208;2023-02-11T03:06:48;44.00;;;23.47;;
40695;SDS011;40425;51.102;17.208;2023-02-11T03:11:56;46.70;;;24.77;;
40695;SDS011;40425;51.102;17.208;2023-02-11T03:17:00;48.33;;;24.70;;
40695;SDS011;40425;51.102;17.208;2023-02-11T03:22:04;49.03;;;24.90;;
40695;SDS011;40425;51.102;17.208;2023-02-11T03:28:13;45.37;;;24.43;;
40695;SDS011;40425;51.102;17.208;2023-02-11T03:32:55;41.00;;;22.20;;
40695;SDS011;40425;51.102;17.208;2023-02-11T03:38:20;43.43;;;23.40;;
40695;SDS011;40425;51.102;17.208;2023-02-11T03:43:25;41.97;;;22.77;;
40695;SDS011;40425;51.102;17.208;2023-02-11T03:48:30;43.03;;;24.37;;
40695;SDS011;40425;51.102;17.208;2023-02-11T03:53:35;37.50;;;21.97;;
40695;SDS011;40425;51.102;17.208;2023-02-11T03:58:40;39.33;;;22.10;;
40695;SDS011;40425;51.102;17.208;2023-02-11T04:03:44;42.83;;;22.13;;
40695;SDS011;40425;51.102;17.208;2023-02-11T04:08:45;38.70;;;21.23;;
40695;SDS011;40425;51.102;17.208;2023-02-11T04:13:46;36.37;;;19.83;;
40695;SDS011;40425;51.102;17.208;2023-02-11T04:18:47;35.37;;;19.27;;
40695;SDS011;40425;51.102;17.208;2023-02-11T04:23:48;33.50;;;19.43;;
40695;SDS011;40425;51.102;17.208;2023-02-11T04:28:49;35.03;;;19.23;;
40695;SDS011;40425;51.102;17.208;2023-02-11T04:33:50;32.33;;;19.23;;
40695;SDS011;40425;51.102;17.208;2023-02-11T04:38:51;40.80;;;20.60;;
40695;SDS011;40425;51.102;17.208;2023-02-11T04:43:51;40.40;;;20.73;;
40695;SDS011;40425;51.102;17.208;2023-02-11T04:48:52;39.57;;;20.83;;
40695;SDS011;40425;51.102;17.208;2023-02-11T04:53:53;34.90;;;19.53;;
40695;SDS011;40425;51.102;17.208;2023-02-11T04:58:54;35.00;;;19.17;;
40695;SDS011;40425;51.102;17.208;2023-02-11T05:03:55;34.17;;;19.13;;
40695;SDS011;40425;51.102;17.208;2023-02-11T05:08:56;35.33;;;19.13;;
40695;SDS011;40425;51.102;17.208;2023-02-11T05:13:57;31.17;;;17.43;;
40695;SDS011;40425;51.102;17.208;2023-02-11T05:18:58;32.50;;;19.43;;
40695;SDS011;40425;51.102;17.208;2023-02-11T05:23:59;41.00;;;19.93;;
40695;SDS011;40425;51.102;17.208;2023-02-11T05:29:00;40.47;;;21.43;;
40695;SDS011;40425;51.102;17.208;2023-02-11T05:34:00;34.87;;;18.40;;
40695;SDS011;40425;51.102;17.208;2023-02-11T05:39:03;36.27;;;19.20;;
40695;SDS011;40425;51.102;17.208;2023-02-11T05:44:04;36.57;;;20.00;;
40695;SDS011;40425;51.102;17.208;2023-02-11T05:49:04;35.13;;;19.83;;
40695;SDS011;40425;51.102;17.208;2023-02-11T05:54:05;40.40;;;20.30;;
40695;SDS011;40425;51.102;17.208;2023-02-11T05:59:06;38.07;;;19.80;;
40695;SDS011;40425;51.102;17.208;2023-02-11T06:04:07;45.80;;;22.80;;
40695;SDS011;40425;51.102;17.208;2023-02-11T06:09:09;33.47;;;18.63;;
40695;SDS011;40425;51.102;17.208;2023-02-11T06:14:10;35.03;;;20.37;;
40695;SDS011;40425;51.102;17.208;2023-02-11T06:19:11;33.30;;;18.43;;
40695;SDS011;40425;51.102;17.208;2023-02-11T06:24:12;39.63;;;19.03;;
40695;SDS011;40425;51.102;17.208;2023-02-11T06:29:13;36.13;;;18.87;;
40695;SDS011;40425;51.102;17.208;2023-02-11T06:34:14;40.90;;;21.43;;
40695;SDS011;40425;51.102;17.208;2023-02-11T06:39:15;33.83;;;20.23;;
40695;SDS011;40425;51.102;17.208;2023-02-11T06:44:16;37.63;;;20.00;;
40695;SDS011;40425;51.102;17.208;2023-02-11T06:49:17;36.10;;;19.93;;
40695;SDS011;40425;51.102;17.208;2023-02-11T06:54:18;38.77;;;20.93;;
40695;SDS011;40425;51.102;17.208;2023-02-11T06:59:19;39.17;;;21.30;;
40695;SDS011;40425;51.102;17.208;2023-02-11T07:04:20;40.67;;;20.63;;
40695;SDS011;40425;51.102;17.208;2023-02-11T07:09:21;40.20;;;20.20;;
40695;SDS011;40425;51.102;17.208;2023-02-11T07:14:22;33.97;;;19.40;;
40695;SDS011;40425;51.102;17.208;2023-02-11T07:19:23;35.73;;;18.37;;
40695;SDS011;40425;51.102;17.208;2023-02-11T07:24:24;37.30;;;19.87;;
40695;SDS011;40425;51.102;17.208;2023-02-11T07:29:25;29.47;;;17.50;;
40695;SDS011;40425;51.102;17.208;2023-02-11T07:34:26;32.23;;;18.80;;
40695;SDS011;40425;51.102;17.208;2023-02-11T07:39:26;35.73;;;17.33;;
40695;SDS011;40425;51.102;17.208;2023-02-11T07:44:28;28.40;;;15.73;;
40695;SDS011;40425;51.102;17.208;2023-02-11T07:49:29;30.77;;;16.07;;
40695;SDS011;40425;51.102;17.208;2023-02-11T07:54:30;32.57;;;17.97;;
40695;SDS011;40425;51.102;17.208;2023-02-11T07:59:31;31.23;;;17.93;;
40695;SDS011;40425;51.102;17.208;2023-02-11T08:04:32;29.87;;;16.27;;
40695;SDS011;40425;51.102;17.208;2023-02-11T08:09:33;32.63;;;17.70;;
40695;SDS011;40425;51.102;17.208;2023-02-11T08:14:34;27.27;;;15.50;;
40695;SDS011;40425;51.102;17.208;2023-02-11T08:19:35;29.00;;;16.93;;
40695;SDS011;40425;51.102;17.208;2023-02-11T08:24:36;31.30;;;17.60;;
40695;SDS011;40425;51.102;17.208;2023-02-11T08:29:36;38.87;;;18.60;;
40695;SDS011;40425;51.102;17.208;2023-02-11T08:34:37;33.27;;;19.27;;
40695;SDS011;40425;51.102;17.208;2023-02-11T08:39:38;38.93;;;18.70;;
40695;SDS011;40425;51.102;17.208;2023-02-11T08:44:39;36.63;;;19.97;;
40695;SDS011;40425;51.102;17.208;2023-02-11T08:49:40;35.73;;;18.97;;
40695;SDS011;40425;51.102;17.208;2023-02-11T08:54:41;31.23;;;17.60;;
40695;SDS011;40425;51.102;17.208;2023-02-11T08:59:42;31.27;;;18.27;;
40695;SDS011;40425;51.102;17.208;2023-02-11T09:04:43;35.80;;;19.73;;
40695;SDS011;40425;51.102;17.208;2023-02-11T09:09:43;33.60;;;19.63;;
40695;SDS011;40425;51.102;17.208;2023-02-11T09:14:44;40.90;;;21.07;;
40695;SDS011;40425;51.102;17.208;2023-02-11T09:19:45;37.63;;;20.77;;
40695;SDS011;40425;51.102;17.208;2023-02-11T09:24:46;37.57;;;20.80;;
40695;SDS011;40425;51.102;17.208;2023-02-11T09:29:47;37.57;;;21.13;;
40695;SDS011;40425;51.102;17.208;2023-02-11T09:34:48;38.67;;;20.93;;
40695;SDS011;40425;51.102;17.208;2023-02-11T09:39:49;36.90;;;18.57;;
40695;SDS011;40425;51.102;17.208;2023-02-11T09:44:50;34.63;;;19.80;;
40695;SDS011;40425;51.102;17.208;2023-02-11T09:49:52;36.17;;;21.53;;
40695;SDS011;40425;51.102;17.208;2023-02-11T09:55:24;37.93;;;20.30;;
40695;SDS011;40425;51.102;17.208;2023-02-11T10:00:39;34.10;;;19.57;;
40695;SDS011;40425;51.102;17.208;2023-02-11T10:06:34;31.70;;;19.10;;
40695;SDS011;40425;51.102;17.208;2023-02-11T10:11:22;26.73;;;16.97;;
40695;SDS011;40425;51.102;17.208;2023-02-11T10:16:42;33.43;;;18.53;;
40695;SDS011;40425;51.102;17.208;2023-02-11T10:27:39;27.70;;;18.00;;
40695;SDS011;40425;51.102;17.208;2023-02-11T10:38:03;27.97;;;16.03;;
40695;SDS011;40425;51.102;17.208;2023-02-11T10:43:05;27.40;;;17.63;;
40695;SDS011;40425;51.102;17.208;2023-02-11T10:53:41;26.02;;;16.05;;
40695;SDS011;40425;51.102;17.208;2023-02-11T10:58:46;26.67;;;17.53;;
40695;SDS011;40425;51.102;17.208;2023-02-11T11:04:00;29.50;;;19.07;;
40695;SDS011;40425;51.102;17.208;2023-02-11T11:09:02;29.97;;;18.23;;
40695;SDS011;40425;51.102;17.208;2023-02-11T11:14:03;30.03;;;19.50;;
40695;SDS011;40425;51.102;17.208;2023-02-11T11:34:47;31.42;;;19.30;;
40695;SDS011;40425;51.102;17.208;2023-02-11T11:55:27;31.53;;;18.70;;
40695;SDS011;40425;51.102;17.208;2023-02-11T12:00:57;35.57;;;19.57;;
40695;SDS011;40425;51.102;17.208;2023-02-11T12:06:17;32.30;;;19.80;;
40695;SDS011;40425;51.102;17.208;2023-02-11T12:11:24;37.77;;;21.07;;
40695;SDS011;40425;51.102;17.208;2023-02-11T12:16:37;32.37;;;19.37;;
40695;SDS011;40425;51.102;17.208;2023-02-11T12:21:50;30.33;;;18.73;;
40695;SDS011;40425;51.102;17.208;2023-02-11T12:32:29;34.70;;;20.20;;
40695;SDS011;40425;51.102;17.208;2023-02-11T12:37:41;32.70;;;19.37;;
40695;SDS011;40425;51.102;17.208;2023-02-11T12:48:38;31.43;;;18.67;;
40695;SDS011;40425;51.102;17.208;2023-02-11T12:59:00;31.67;;;19.67;;
40695;SDS011;40425;51.102;17.208;2023-02-11T13:04:14;28.00;;;17.30;;
40695;SDS011;40425;51.102;17.208;2023-02-11T13:09:19;31.37;;;18.03;;
40695;SDS011;40425;51.102;17.208;2023-02-11T13:14:45;31.03;;;19.57;;
40695;SDS011;40425;51.102;17.208;2023-02-11T13:19:51;29.87;;;19.07;;
40695;SDS011;40425;51.102;17.208;2023-02-11T13:30:21;33.97;;;19.63;;
40695;SDS011;40425;51.102;17.208;2023-02-11T13:35:37;33.80;;;18.37;;
40695;SDS011;40425;51.102;17.208;2023-02-11T13:40:40;28.43;;;18.20;;
40695;SDS011;40425;51.102;17.208;2023-02-11T13:45:43;32.33;;;17.93;;
40695;SDS011;40425;51.102;17.208;2023-02-11T13:50:46;28.97;;;18.43;;
40695;SDS011;40425;51.102;17.208;2023-02-11T13:55:50;33.20;;;19.47;;
40695;SDS011;40425;51.102;17.208;2023-02-11T14:00:53;37.07;;;20.57;;
40695;SDS011;40425;51.102;17.208;2023-02-11T14:16:32;36.90;;;18.90;;
40695;SDS011;40425;51.102;17.208;2023-02-11T14:21:35;29.87;;;18.40;;
40695;SDS011;40425;51.102;17.208;2023-02-11T14:26:54;29.20;;;18.33;;
40695;SDS011;40425;51.102;17.208;2023-02-11T14:42:47;33.23;;;18.90;;
40695;SDS011;40425;51.102;17.208;2023-02-11T14:53:01;29.10;;;18.23;;
40695;SDS011;40425;51.102;17.208;2023-02-11T14:58:12;33.73;;;20.70;;
40695;SDS011;40425;51.102;17.208;2023-02-11T15:03:40;36.93;;;21.13;;
40695;SDS011;40425;51.102;17.208;2023-02-11T15:08:43;33.80;;;21.40;;
40695;SDS011;40425;51.102;17.208;2023-02-11T15:13:47;37.07;;;21.23;;
40695;SDS011;40425;51.102;17.208;2023-02-11T15:18:53;35.97;;;22.77;;
40695;SDS011;40425;51.102;17.208;2023-02-11T15:29:13;43.30;;;22.67;;
40695;SDS011;40425;51.102;17.208;2023-02-11T15:34:17;39.37;;;23.40;;
40695;SDS011;40425;51.102;17.208;2023-02-11T15:39:31;38.80;;;23.03;;
40695;SDS011;40425;51.102;17.208;2023-02-11T15:44:39;41.33;;;24.33;;
40695;SDS011;40425;51.102;17.208;2023-02-11T15:49:42;38.53;;;23.60;;
40695;SDS011;40425;51.102;17.208;2023-02-11T15:54:44;36.23;;;23.17;;
40695;SDS011;40425;51.102;17.208;2023-02-11T15:59:50;41.47;;;24.23;;
40695;SDS011;40425;51.102;17.208;2023-02-11T16:04:55;36.47;;;22.37;;
40695;SDS011;40425;51.102;17.208;2023-02-11T16:09:57;39.33;;;23.73;;
40695;SDS011;40425;51.102;17.208;2023-02-11T16:14:58;35.77;;;22.70;;
40695;SDS011;40425;51.102;17.208;2023-02-11T16:20:37;36.30;;;22.13;;
40695;SDS011;40425;51.102;17.208;2023-02-11T16:25:40;35.93;;;21.77;;
40695;SDS011;40425;51.102;17.208;2023-02-11T16:30:41;36.63;;;21.57;;
40695;SDS011;40425;51.102;17.208;2023-02-11T16:35:42;33.83;;;20.73;;
40695;SDS011;40425;51.102;17.208;2023-02-11T16:40:46;28.57;;;20.13;;
40695;SDS011;40425;51.102;17.208;2023-02-11T16:45:50;25.83;;;18.50;;
40695;SDS011;40425;51.102;17.208;2023-02-11T16:50:51;35.13;;;22.10;;
40695;SDS011;40425;51.102;17.208;2023-02-11T16:55:52;31.33;;;19.67;;
40695;SDS011;40425;51.102;17.208;2023-02-11T17:00:53;29.97;;;19.60;;
40695;SDS011;40425;51.102;17.208;2023-02-11T17:05:56;28.47;;;19.20;;
40695;SDS011;40425;51.102;17.208;2023-02-11T17:10:56;29.73;;;20.60;;
40695;SDS011;40425;51.102;17.208;2023-02-11T17:15:57;31.70;;;18.80;;
40695;SDS011;40425;51.102;17.208;2023-02-11T17:20:58;31.67;;;19.17;;
40695;SDS011;40425;51.102;17.208;2023-02-11T17:26:00;35.27;;;21.07;;
40695;SDS011;40425;51.102;17.208;2023-02-11T17:31:05;31.40;;;20.23;;
40695;SDS011;40425;51.102;17.208;2023-02-11T17:36:07;31.53;;;20.83;;
40695;SDS011;40425;51.102;17.208;2023-02-11T17:41:09;32.60;;;21.13;;
40695;SDS011;40425;51.102;17.208;2023-02-11T17:46:11;32.73;;;20.53;;
40695;SDS011;40425;51.102;17.208;2023-02-11T17:51:33;39.47;;;21.87;;
40695;SDS011;40425;51.102;17.208;2023-02-11T17:56:35;35.40;;;21.10;;
40695;SDS011;40425;51.102;17.208;2023-02-11T18:01:37;33.97;;;22.20;;
40695;SDS011;40425;51.102;17.208;2023-02-11T18:06:39;37.43;;;22.77;;
40695;SDS011;40425;51.102;17.208;2023-02-11T18:11:40;35.70;;;22.97;;
40695;SDS011;40425;51.102;17.208;2023-02-11T18:16:41;40.77;;;23.70;;
40695;SDS011;40425;51.102;17.208;2023-02-11T18:21:44;36.03;;;22.60;;
40695;SDS011;40425;51.102;17.208;2023-02-11T18:26:47;33.97;;;22.20;;
40695;SDS011;40425;51.102;17.208;2023-02-11T18:31:48;33.03;;;23.90;;
40695;SDS011;40425;51.102;17.208;2023-02-11T18:36:49;34.50;;;22.97;;
40695;SDS011;40425;51.102;17.208;2023-02-11T18:41:53;33.03;;;22.50;;
40695;SDS011;40425;51.102;17.208;2023-02-11T18:46:55;35.43;;;22.63;;
40695;SDS011;40425;51.102;17.208;2023-02-11T18:51:56;33.40;;;23.27;;
40695;SDS011;40425;51.102;17.208;2023-02-11T18:56:57;33.07;;;22.37;;
40695;SDS011;40425;51.102;17.208;2023-02-11T19:01:58;29.57;;;20.57;;
40695;SDS011;40425;51.102;17.208;2023-02-11T19:06:59;35.77;;;22.27;;
40695;SDS011;40425;51.102;17.208;2023-02-11T19:12:02;30.67;;;21.47;;
40695;SDS011;40425;51.102;17.208;2023-02-11T19:17:06;31.30;;;21.47;;
40695;SDS011;40425;51.102;17.208;2023-02-11T19:22:09;34.70;;;22.87;;
40695;SDS011;40425;51.102;17.208;2023-02-11T19:27:10;32.33;;;21.90;;
40695;SDS011;40425;51.102;17.208;2023-02-11T19:32:11;32.70;;;21.93;;
40695;SDS011;40425;51.102;17.208;2023-02-11T19:37:12;31.57;;;21.97;;
40695;SDS011;40425;51.102;17.208;2023-02-11T19:42:14;33.27;;;22.57;;
40695;SDS011;40425;51.102;17.208;2023-02-11T19:47:15;37.03;;;23.70;;
40695;SDS011;40425;51.102;17.208;2023-02-11T19:52:15;36.63;;;24.93;;
40695;SDS011;40425;51.102;17.208;2023-02-11T19:57:16;34.23;;;23.47;;
40695;SDS011;40425;51.102;17.208;2023-02-11T20:02:17;36.87;;;24.43;;
40695;SDS011;40425;51.102;17.208;2023-02-11T20:07:18;34.17;;;22.87;;
40695;SDS011;40425;51.102;17.208;2023-02-11T20:12:19;39.33;;;24.50;;
40695;SDS011;40425;51.102;17.208;2023-02-11T20:17:20;37.20;;;24.93;;
40695;SDS011;40425;51.102;17.208;2023-02-11T20:22:21;34.97;;;22.77;;
40695;SDS011;40425;51.102;17.208;2023-02-11T20:27:22;34.27;;;23.13;;
40695;SDS011;40425;51.102;17.208;2023-02-11T20:32:23;34.30;;;22.07;;
40695;SDS011;40425;51.102;17.208;2023-02-11T20:37:24;33.03;;;23.67;;
40695;SDS011;40425;51.102;17.208;2023-02-11T20:42:25;29.87;;;20.23;;
40695;SDS011;40425;51.102;17.208;2023-02-11T20:47:26;31.77;;;21.23;;
40695;SDS011;40425;51.102;17.208;2023-02-11T20:52:27;29.83;;;21.77;;
40695;SDS011;40425;51.102;17.208;2023-02-11T20:57:28;31.33;;;21.23;;
40695;SDS011;40425;51.102;17.208;2023-02-11T21:02:29;33.17;;;21.50;;
40695;SDS011;40425;51.102;17.208;2023-02-11T21:07:30;34.40;;;22.50;;
40695;SDS011;40425;51.102;17.208;2023-02-11T21:12:30;31.77;;;21.03;;
40695;SDS011;40425;51.102;17.208;2023-02-11T21:17:31;30.60;;;20.07;;
40695;SDS011;40425;51.102;17.208;2023-02-11T21:22:33;32.67;;;20.20;;
40695;SDS011;40425;51.102;17.208;2023-02-11T21:27:34;33.90;;;21.93;;
40695;SDS011;40425;51.102;17.208;2023-02-11T21:32:35;32.53;;;20.60;;
40695;SDS011;40425;51.102;17.208;2023-02-11T21:37:36;33.77;;;22.93;;
40695;SDS011;40425;51.102;17.208;2023-02-11T21:42:36;31.43;;;19.30;;
40695;SDS011;40425;51.102;17.208;2023-02-11T21:47:37;34.03;;;21.33;;
40695;SDS011;40425;51.102;17.208;2023-02-11T21:52:38;31.60;;;20.27;;
40695;SDS011;40425;51.102;17.208;2023-02-11T21:57:39;32.17;;;21.47;;
40695;SDS011;40425;51.102;17.208;2023-02-11T22:02:40;31.93;;;20.37;;
40695;SDS011;40425;51.102;17.208;2023-02-11T22:07:41;33.13;;;20.33;;
40695;SDS011;40425;51.102;17.208;2023-02-11T22:12:42;33.33;;;20.37;;
40695;SDS011;40425;51.102;17.208;2023-02-11T22:17:43;33.17;;;21.20;;
40695;SDS011;40425;51.102;17.208;2023-02-11T22:22:44;54.20;;;32.50;;
40695;SDS011;40425;51.102;17.208;2023-02-11T22:27:45;47.73;;;28.00;;
40695;SDS011;40425;51.102;17.208;2023-02-11T22:32:45;40.93;;;23.33;;
40695;SDS011;40425;51.102;17.208;2023-02-11T22:37:47;43.20;;;26.30;;
40695;SDS011;40425;51.102;17.208;2023-02-11T22:42:48;36.30;;;21.97;;
40695;SDS011;40425;51.102;17.208;2023-02-11T22:47:49;33.33;;;20.10;;
40695;SDS011;40425;51.102;17.208;2023-02-11T22:52:50;34.83;;;20.67;;
40695;SDS011;40425;51.102;17.208;2023-02-11T22:57:51;29.13;;;19.50;;
40695;SDS011;40425;51.102;17.208;2023-02-11T23:02:52;33.37;;;20.27;;
40695;SDS011;40425;51.102;17.208;2023-02-11T23:07:53;39.87;;;21.17;;
40695;SDS011;40425;51.102;17.208;2023-02-11T23:12:54;36.30;;;19.97;;
40695;SDS011;40425;51.102;17.208;2023-02-11T23:17:55;40.47;;;20.70;;
40695;SDS011;40425;51.102;17.208;2023-02-11T23:22:56;30.20;;;19.80;;
40695;SDS011;40425;51.102;17.208;2023-02-11T23:27:57;35.83;;;21.43;;
40695;SDS011;40425;51.102;17.208;2023-02-11T23:32:58;34.63;;;22.10;;
40695;SDS011;40425;51.102;17.208;2023-02-11T23:37:59;37.50;;;21.50;;
40695;SDS011;40425;51.102;17.208;2023-02-11T23:43:00;33.97;;;22.27;;
40695;SDS011;40425;51.102;17.208;2023-02-11T23:48:01;34.80;;;21.13;;
40695;SDS011;40425;51.102;17.208;2023-02-11T23:53:01;38.23;;;20.93;;
40695;SDS011;40425;51.102;17.208;2023-02-11T23:58:02;37.63;;;21.43;;
